Time;durP1;ratioP1;P1;durP2;ratioP2;P2;SDS_P1;SDS_P2;PMS_P1;PMS_P2;Temp;Humidity;BMP_temperature;BMP_pressure;BME280_temperature;BME280_humidity;BME280_pressure;Samples;Min_cycle;Max_cycle;Signal;HPM_P1;HPM_P2
2022/05/19 00:01:28;;;;;;;1.70;1.33;;;;;;;23.74;69.34;101283.94;5031081;28;20423;-63
2022/05/19 00:03:54;;;;;;;1.42;1.05;;;;;;;23.69;69.77;101289.94;5030592;28;20037;-63
2022/05/19 00:06:20;;;;;;;2.70;1.80;;;;;;;23.64;70.33;101286.94;5024726;28;20349;-63
2022/05/19 00:08:45;;;;;;;2.78;1.25;;;;;;;23.65;70.29;101283.00;5030858;28;20040;-63
2022/05/19 00:11:16;;;;;;;2.17;1.30;;;;;;;23.65;70.25;101288.50;5026237;28;20472;-63
2022/05/19 00:13:43;;;;;;;2.30;1.35;;;;;;;23.67;69.56;101286.09;5027571;28;20037;-63
2022/05/19 00:16:09;;;;;;;2.65;1.55;;;;;;;23.56;70.05;101275.31;5025402;28;20125;-63
2022/05/19 00:18:36;;;;;;;2.45;1.52;;;;;;;23.57;70.11;101273.34;5030972;28;20380;-63
2022/05/19 00:21:02;;;;;;;1.90;1.65;;;;;;;23.54;70.38;101272.22;5025760;28;20346;-63
2022/05/19 00:23:27;;;;;;;2.55;1.42;;;;;;;23.60;69.96;101276.00;5030422;28;20462;-63
2022/05/19 00:25:53;;;;;;;2.15;1.55;;;;;;;23.51;70.48;101262.09;5030115;28;20033;-63
2022/05/19 00:28:18;;;;;;;1.52;1.20;;;;;;;23.50;70.39;101257.78;5031533;28;20404;-63
2022/05/19 00:30:44;;;;;;;3.10;1.13;;;;;;;23.52;70.54;101262.88;5024088;28;20493;-63
2022/05/19 00:33:11;;;;;;;1.90;1.58;;;;;;;23.45;70.77;101261.03;5013513;28;20539;-63
2022/05/19 00:35:38;;;;;;;2.20;1.52;;;;;;;23.37;71.40;101265.16;5026830;28;20033;-63
2022/05/19 00:38:04;;;;;;;3.20;1.40;;;;;;;23.46;70.34;101254.34;5027898;28;20399;-63
2022/05/19 00:40:30;;;;;;;2.45;1.38;;;;;;;23.39;70.87;101264.72;5028545;28;20037;-63
2022/05/19 00:42:55;;;;;;;2.28;1.55;;;;;;;23.33;71.42;101258.97;5030920;28;20041;-63
2022/05/19 00:45:24;;;;;;;2.20;1.40;;;;;;;23.30;71.21;101252.31;5027166;28;20029;-63
2022/05/19 00:47:58;;;;;;;1.65;1.40;;;;;;;23.30;71.69;101257.03;5028808;28;20045;-63
2022/05/19 00:50:44;;;;;;;2.50;1.38;;;;;;;23.32;71.36;101257.41;5031546;28;20037;-63
2022/05/19 00:53:18;;;;;;;2.42;1.40;;;;;;;23.33;70.96;101258.16;5031041;28;20029;-63
2022/05/19 00:55:48;;;;;;;2.30;1.50;;;;;;;23.30;71.03;101265.28;5024929;28;20163;-63
2022/05/19 00:58:20;;;;;;;2.78;1.65;;;;;;;23.24;71.71;101259.53;5030112;28;20033;-63
2022/05/19 01:00:46;;;;;;;3.08;1.52;;;;;;;23.28;71.10;101256.69;5029730;28;20037;-63
2022/05/19 01:03:14;;;;;;;1.88;1.33;;;;;;;23.23;71.58;101265.44;5028908;28;20404;-62
2022/05/19 01:05:53;;;;;;;2.70;1.75;;;;;;;23.21;71.61;101254.88;5006687;28;20036;-63
2022/05/19 01:08:34;;;;;;;2.60;1.48;;;;;;;23.22;71.67;101255.66;5025421;28;20041;-63
2022/05/19 01:11:03;;;;;;;1.98;1.27;;;;;;;23.11;72.07;101244.13;5032778;28;20037;-63
2022/05/19 01:13:31;;;;;;;2.35;1.20;;;;;;;23.11;72.29;101247.63;5011581;28;20124;-63
2022/05/19 01:15:59;;;;;;;2.78;1.60;;;;;;;23.11;72.02;101250.38;5024665;28;20041;-63
2022/05/19 01:18:27;;;;;;;1.83;1.23;;;;;;;23.17;71.87;101254.16;5027107;28;20033;-63
2022/05/19 01:20:54;;;;;;;2.35;1.42;;;;;;;23.14;71.96;101249.53;5029491;28;20041;-63
2022/05/19 01:23:39;;;;;;;2.20;1.50;;;;;;;23.05;72.44;101251.31;5030457;28;20068;-63
2022/05/19 01:26:32;;;;;;;4.85;1.48;;;;;;;23.11;71.99;101249.63;5024601;28;20038;-63
2022/05/19 01:28:58;;;;;;;2.78;1.23;;;;;;;23.02;72.37;101246.66;5031104;28;20045;-63
2022/05/19 01:31:37;;;;;;;2.53;1.38;;;;;;;22.97;73.35;101250.69;5024762;28;20029;-63
2022/05/19 01:34:05;;;;;;;2.00;1.23;;;;;;;22.85;74.06;101248.56;5027658;28;20029;-63
2022/05/19 01:36:31;;;;;;;2.30;1.38;;;;;;;22.90;73.77;101250.81;5024766;28;20049;-63
2022/05/19 01:39:18;;;;;;;1.85;1.20;;;;;;;22.95;73.21;101252.31;5028112;28;20034;-63
2022/05/19 01:42:05;;;;;;;2.60;1.77;;;;;;;22.98;72.76;101254.97;5023704;28;20079;-63
2022/05/19 01:45:03;;;;;;;1.63;1.23;;;;;;;22.91;73.31;101246.88;5024542;28;20038;-63
2022/05/19 01:47:37;;;;;;;3.10;1.23;;;;;;;22.86;73.80;101244.63;5024417;28;20046;-63
2022/05/19 01:50:25;;;;;;;2.38;1.60;;;;;;;22.84;73.92;101238.78;5025834;28;20076;-63
2022/05/19 01:53:21;;;;;;;2.03;1.52;;;;;;;22.85;74.07;101243.09;5028894;28;20033;-63
2022/05/19 01:56:09;;;;;;;2.33;1.38;;;;;;;22.83;73.54;101234.50;5024961;28;20030;-63
2022/05/19 01:59:20;;;;;;;1.52;1.20;;;;;;;22.78;74.75;101240.50;5029149;28;20090;-63
2022/05/19 02:02:00;;;;;;;1.35;1.25;;;;;;;22.74;74.60;101239.00;5002897;28;20037;-63
2022/05/19 02:04:39;;;;;;;4.00;1.50;;;;;;;22.71;74.46;101237.88;5028076;28;20451;-63
2022/05/19 02:07:10;;;;;;;2.35;1.58;;;;;;;22.77;74.00;101238.94;5027827;28;20045;-63
2022/05/19 02:09:44;;;;;;;2.50;1.38;;;;;;;22.69;74.50;101234.00;5020492;28;20029;-63
2022/05/19 02:12:10;;;;;;;2.00;1.52;;;;;;;22.71;74.01;101232.38;5025800;28;21227;-63
2022/05/19 02:14:50;;;;;;;2.03;1.40;;;;;;;22.69;74.19;101234.78;5027546;28;20029;-63
2022/05/19 02:17:20;;;;;;;2.80;1.42;;;;;;;22.66;74.56;101234.84;5024364;28;20064;-63
2022/05/19 02:19:50;;;;;;;1.83;1.20;;;;;;;22.60;74.84;101242.81;5024857;28;20064;-63
2022/05/19 02:22:18;;;;;;;3.78;1.80;;;;;;;22.59;74.79;101235.00;5027075;28;20083;-63
2022/05/19 02:24:56;;;;;;;2.42;1.45;;;;;;;22.61;74.50;101232.59;5027800;28;20022;-63
2022/05/19 02:27:47;;;;;;;1.98;1.67;;;;;;;22.57;74.32;101235.41;5027022;28;20047;-64
2022/05/19 02:30:18;;;;;;;1.95;1.45;;;;;;;22.47;74.65;101228.13;5018764;28;20507;-63
2022/05/19 02:32:44;;;;;;;;;;;;;;;22.49;74.26;101219.47;5028955;28;20037;-63
2022/05/19 02:35:12;;;;;;;2.15;1.50;;;;;;;22.42;74.99;101226.63;5027617;28;19988;-63
2022/05/19 02:37:39;;;;;;;2.28;1.40;;;;;;;22.47;74.99;101230.88;5010357;28;20033;-63
2022/05/19 02:40:06;;;;;;;6.47;1.70;;;;;;;22.44;74.91;101235.22;5023784;28;20345;-61
2022/05/19 02:42:31;;;;;;;2.03;1.40;;;;;;;22.44;74.82;101226.22;5028681;28;20045;-63
2022/05/19 02:44:57;;;;;;;2.25;1.60;;;;;;;22.36;75.33;101227.53;5024001;28;20030;-63
2022/05/19 02:47:22;;;;;;;2.42;1.63;;;;;;;22.33;75.60;101228.38;5020069;28;20048;-63
2022/05/19 02:49:48;;;;;;;3.88;1.48;;;;;;;22.29;75.71;101230.41;5019495;28;20235;-63
2022/05/19 02:52:14;;;;;;;2.13;1.40;;;;;;;22.30;76.01;101224.50;5012060;28;20037;-63
2022/05/19 02:54:40;;;;;;;3.53;1.83;;;;;;;22.29;76.19;101227.69;5021131;28;20380;-63
2022/05/19 02:57:06;;;;;;;2.83;1.42;;;;;;;22.28;75.69;101226.91;5028671;28;20066;-62
2022/05/19 02:59:31;;;;;;;1.55;0.95;;;;;;;22.26;76.23;101218.31;5022732;28;20040;-62
2022/05/19 03:01:57;;;;;;;1.83;1.30;;;;;;;22.30;75.68;101223.72;5021230;28;20045;-63
2022/05/19 03:04:23;;;;;;;2.28;1.42;;;;;;;22.29;75.76;101216.69;5022201;28;20369;-64
2022/05/19 03:06:48;;;;;;;2.40;1.42;;;;;;;22.22;76.11;101214.09;5019492;28;20041;-62
2022/05/19 03:09:13;;;;;;;4.18;1.55;;;;;;;22.22;75.56;101214.84;5019569;28;20034;-62
2022/05/19 03:11:39;;;;;;;2.25;1.50;;;;;;;22.11;76.43;101210.75;5027906;28;20026;-62
2022/05/19 03:14:05;;;;;;;2.35;1.42;;;;;;;22.08;76.44;101217.09;5027731;28;20029;-62
2022/05/19 03:16:31;;;;;;;2.65;1.83;;;;;;;22.07;76.72;101215.53;5026823;28;20037;-63
2022/05/19 03:18:56;;;;;;;4.13;1.60;;;;;;;22.08;76.50;101212.38;5024949;28;20045;-63
2022/05/19 03:21:22;;;;;;;1.95;1.55;;;;;;;22.07;76.72;101205.34;5027550;28;20036;-62
2022/05/19 03:23:47;;;;;;;3.33;1.85;;;;;;;22.04;77.06;101205.41;5028830;28;20048;-62
2022/05/19 03:26:13;;;;;;;2.47;1.77;;;;;;;22.02;76.90;101205.03;5009632;28;20187;-62
2022/05/19 03:28:38;;;;;;;2.50;1.60;;;;;;;22.03;76.85;101214.81;5017937;28;20092;-63
2022/05/19 03:31:04;;;;;;;2.42;1.60;;;;;;;21.96;77.17;101204.75;5024904;28;20076;-63
2022/05/19 03:33:29;;;;;;;2.13;1.23;;;;;;;22.01;77.01;101209.00;5028280;28;20037;-63
2022/05/19 03:35:57;;;;;;;2.55;1.40;;;;;;;21.98;77.41;101213.34;5022485;28;20033;-63
2022/05/19 03:38:22;;;;;;;3.50;1.70;;;;;;;21.96;77.71;101209.47;5026577;28;20118;-63
2022/05/19 03:40:47;;;;;;;2.78;1.55;;;;;;;22.03;76.73;101218.34;5023801;28;20276;-63
2022/05/19 03:43:13;;;;;;;2.47;1.60;;;;;;;22.00;76.98;101218.41;5026138;28;20379;-63
2022/05/19 03:45:42;;;;;;;2.85;1.38;;;;;;;21.94;77.58;101215.38;5028577;28;20026;-63
2022/05/19 03:48:08;;;;;;;2.38;1.52;;;;;;;21.95;77.41;101216.16;5026602;28;20038;-63
2022/05/19 03:50:34;;;;;;;2.33;1.50;;;;;;;21.97;77.65;101213.75;5011903;28;20057;-63
2022/05/19 03:52:59;;;;;;;6.03;1.75;;;;;;;21.96;77.11;101212.97;5028405;28;20118;-63
2022/05/19 03:55:25;;;;;;;2.08;1.27;;;;;;;21.93;77.99;101211.06;5029282;28;20030;-63
2022/05/19 03:57:52;;;;;;;1.90;1.40;;;;;;;21.98;77.50;101202.38;5029646;28;20399;-63
2022/05/19 04:00:18;;;;;;;3.08;1.83;;;;;;;21.99;77.33;101214.13;5020108;28;20033;-62
2022/05/19 04:02:45;;;;;;;2.65;1.58;;;;;;;21.90;78.00;101211.91;5028961;28;20041;-63
2022/05/19 04:05:13;;;;;;;1.83;1.35;;;;;;;21.90;78.00;101213.88;5028484;28;20034;-63
2022/05/19 04:07:39;;;;;;;2.67;1.48;;;;;;;21.93;77.82;101211.06;5011147;28;20072;-63
2022/05/19 04:10:07;;;;;;;2.88;1.38;;;;;;;21.92;78.13;101208.75;5028708;28;20419;-63
2022/05/19 04:12:33;;;;;;;3.15;1.50;;;;;;;21.96;77.85;101204.75;5029201;28;20041;-63
2022/05/19 04:14:59;;;;;;;1.92;1.45;;;;;;;21.96;78.16;101212.19;5030307;28;20049;-63
2022/05/19 04:17:25;;;;;;;3.00;1.65;;;;;;;22.04;77.69;101211.66;5016780;28;20072;-63
2022/05/19 04:19:51;;;;;;;2.55;1.70;;;;;;;22.06;77.52;101205.75;5027889;28;20074;-63
2022/05/19 04:22:16;;;;;;;1.95;1.35;;;;;;;22.07;77.17;101218.28;5032438;28;20447;-63
2022/05/19 04:24:41;;;;;;;2.45;1.38;;;;;;;22.03;77.21;101212.06;5015035;28;20029;-63
2022/05/19 04:27:07;;;;;;;5.22;1.73;;;;;;;22.08;77.30;101212.38;5029991;28;20044;-63
2022/05/19 04:29:32;;;;;;;2.63;1.45;;;;;;;22.00;78.31;101215.66;5032383;28;20116;-63
2022/05/19 04:31:58;;;;;;;3.33;1.40;;;;;;;22.01;78.53;101217.97;5031923;28;20484;-63
2022/05/19 04:34:24;;;;;;;2.17;1.40;;;;;;;22.02;78.99;101205.81;5014614;28;20033;-63
2022/05/19 04:36:49;;;;;;;2.03;1.35;;;;;;;22.04;79.11;101217.16;5013572;28;20384;-64
2022/05/19 04:39:14;;;;;;;2.47;1.75;;;;;;;22.09;78.86;101224.13;5016839;28;20516;-63
2022/05/19 04:41:40;;;;;;;2.65;1.73;;;;;;;22.13;78.55;101216.59;5026175;28;20038;-63
2022/05/19 04:44:06;;;;;;;3.75;1.83;;;;;;;22.17;77.90;101226.31;5030302;28;20029;-63
2022/05/19 04:46:31;;;;;;;3.28;1.73;;;;;;;22.18;78.05;101216.88;5019962;28;20041;-62
2022/05/19 04:48:56;;;;;;;3.72;1.80;;;;;;;22.22;77.46;101214.09;5025407;28;20033;-63
2022/05/19 04:51:22;;;;;;;4.03;1.58;;;;;;;22.24;77.48;101220.69;5016054;28;20042;-63
2022/05/19 04:53:47;;;;;;;2.92;1.67;;;;;;;22.25;77.01;101222.25;5010077;28;20171;-63
2022/05/19 04:56:13;;;;;;;1.77;1.35;;;;;;;22.26;77.08;101228.53;5001219;28;20485;-63
2022/05/19 04:58:39;;;;;;;2.28;1.50;;;;;;;22.32;77.56;101232.31;5024482;28;20436;-62
2022/05/19 05:01:05;;;;;;;1.95;1.23;;;;;;;22.39;76.78;101227.50;5022494;28;20092;-63
2022/05/19 05:03:31;;;;;;;1.77;1.27;;;;;;;22.50;76.24;101231.97;5031859;28;20044;-64
2022/05/19 05:05:56;;;;;;;4.57;1.63;;;;;;;22.59;75.55;101227.50;5028660;28;20029;-63
2022/05/19 05:08:21;;;;;;;2.40;1.38;;;;;;;22.70;75.44;101225.34;5022709;28;20087;-63
2022/05/19 05:10:47;;;;;;;1.90;1.60;;;;;;;22.81;75.32;101233.34;5026917;28;20464;-63
2022/05/19 05:13:14;;;;;;;2.42;1.27;;;;;;;23.07;74.14;101238.66;5025998;28;20060;-63
2022/05/19 05:15:42;;;;;;;2.45;1.50;;;;;;;23.46;72.35;101228.81;5021711;28;20108;-63
2022/05/19 05:18:08;;;;;;;2.13;1.48;;;;;;;24.01;70.23;101237.66;5017375;28;20037;-63
2022/05/19 05:20:34;;;;;;;2.50;1.52;;;;;;;24.54;68.56;101238.25;5030537;28;20949;-63
2022/05/19 05:23:00;;;;;;;2.45;1.60;;;;;;;25.14;66.33;101242.06;5031051;28;20033;-63
2022/05/19 05:25:29;;;;;;;2.33;1.20;;;;;;;25.20;63.94;101245.81;5020733;28;20040;-63
2022/05/19 05:27:57;;;;;;;2.30;1.42;;;;;;;25.15;64.86;101240.84;5016182;28;20492;-63
2022/05/19 05:30:23;;;;;;;1.58;1.05;;;;;;;25.20;63.35;101234.78;5020871;28;20606;-63
2022/05/19 05:32:49;;;;;;;1.50;1.17;;;;;;;25.09;63.39;101237.09;5023361;28;20033;-64
2022/05/19 05:35:14;;;;;;;2.55;1.35;;;;;;;24.91;64.60;101230.09;5030601;28;20036;-63
2022/05/19 05:37:40;;;;;;;1.75;1.25;;;;;;;24.78;65.62;101234.81;5026999;28;20037;-63
2022/05/19 05:40:10;;;;;;;3.88;1.20;;;;;;;24.78;65.88;101232.06;5030444;28;20488;-63
2022/05/19 05:42:37;;;;;;;1.80;1.42;;;;;;;24.95;64.15;101235.53;5029826;28;20096;-63
2022/05/19 05:45:05;;;;;;;2.30;1.30;;;;;;;24.99;64.27;101231.44;5030707;28;20112;-63
2022/05/19 05:47:30;;;;;;;1.98;1.20;;;;;;;25.01;64.28;101234.53;5022285;28;20045;-63
2022/05/19 05:49:56;;;;;;;1.98;1.13;;;;;;;24.96;64.11;101232.34;5031286;28;20120;-63
2022/05/19 05:52:22;;;;;;;2.00;1.35;;;;;;;24.96;64.59;101242.59;5010452;28;20103;-63
2022/05/19 05:54:47;;;;;;;1.33;1.17;;;;;;;25.01;64.30;101233.75;5030005;28;20029;-62
2022/05/19 05:57:14;;;;;;;1.70;1.20;;;;;;;25.02;64.18;101235.31;5012599;28;20038;-63
2022/05/19 05:59:41;;;;;;;3.20;1.40;;;;;;;25.09;64.16;101237.84;5021526;28;20121;-63
2022/05/19 06:02:07;;;;;;;1.75;1.48;;;;;;;25.19;63.82;101233.22;5022714;28;20453;-63
2022/05/19 06:04:33;;;;;;;2.22;1.10;;;;;;;25.32;63.82;101245.81;5029688;28;20029;-63
2022/05/19 06:06:59;;;;;;;2.00;1.48;;;;;;;25.40;63.16;101238.13;5031053;28;20051;-63
2022/05/19 06:09:24;;;;;;;1.50;1.10;;;;;;;25.52;62.72;101234.59;5027864;28;20041;-62
2022/05/19 06:11:51;;;;;;;1.70;1.20;;;;;;;25.54;62.90;101243.97;5020489;28;20102;-63
2022/05/19 06:14:17;;;;;;;3.75;1.17;;;;;;;25.48;62.97;101233.91;5030388;28;20053;-63
2022/05/19 06:16:43;;;;;;;1.63;1.23;;;;;;;25.50;63.07;101237.00;5029790;28;20476;-63
2022/05/19 06:19:08;;;;;;;3.00;1.17;;;;;;;25.57;63.51;101231.28;5027137;28;20045;-63
2022/05/19 06:21:36;;;;;;;1.55;1.35;;;;;;;25.73;61.87;101242.19;5022112;28;20035;-62
2022/05/19 06:24:09;;;;;;;1.92;1.35;;;;;;;25.87;62.50;101230.66;5022855;28;20034;-62
2022/05/19 06:26:38;;;;;;;1.98;1.13;;;;;;;26.07;61.89;101239.50;5010191;28;20469;-63
2022/05/19 06:29:04;;;;;;;4.00;1.70;;;;;;;26.17;60.34;101235.56;5011058;28;20038;-63
2022/05/19 06:31:31;;;;;;;2.13;1.17;;;;;;;26.15;61.36;101234.50;5019374;28;20289;-63
2022/05/19 06:33:58;;;;;;;1.45;1.20;;;;;;;26.18;61.22;101230.81;5020804;28;20037;-63
2022/05/19 06:36:24;;;;;;;2.10;1.33;;;;;;;26.23;61.28;101236.53;5011826;28;20095;-64
2022/05/19 06:38:49;;;;;;;5.03;1.70;;;;;;;26.19;61.10;101235.91;5029839;28;20033;-63
2022/05/19 06:43:58;;;;;;;1.70;1.13;;;;;;;26.28;61.25;101230.47;5030242;28;20033;-63
2022/05/19 06:46:24;;;;;;;3.50;1.42;;;;;;;26.24;60.64;101229.81;5019240;28;20049;-64
2022/05/19 06:48:49;;;;;;;2.10;1.33;;;;;;;26.23;60.87;101228.25;5030096;28;20041;-63
2022/05/19 06:51:15;;;;;;;1.42;1.08;;;;;;;26.25;62.77;101220.28;5022391;28;20488;-63
2022/05/19 06:53:41;;;;;;;1.98;1.40;;;;;;;26.38;61.71;101217.50;5029615;28;20045;-63
2022/05/19 06:56:08;;;;;;;5.18;1.40;;;;;;;26.47;62.27;101214.78;5016225;28;20503;-63
2022/05/19 06:58:34;;;;;;;2.20;1.50;;;;;;;26.60;60.71;101221.78;5020216;28;20090;-63
2022/05/19 07:01:00;;;;;;;1.42;1.23;;;;;;;26.60;60.47;101219.03;5019464;28;20033;-63
2022/05/19 07:03:26;;;;;;;1.58;1.20;;;;;;;26.57;59.87;101213.63;5028261;28;20030;-64
2022/05/19 07:05:51;;;;;;;2.25;1.20;;;;;;;26.64;60.52;101213.38;5008532;28;20036;-63
2022/05/19 07:08:16;;;;;;;1.92;1.27;;;;;;;26.77;61.61;101212.09;5025974;28;20087;-63
2022/05/19 07:10:42;;;;;;;1.40;1.17;;;;;;;26.96;60.78;101224.03;5023774;28;20454;-63
2022/05/19 07:13:07;;;;;;;1.33;1.08;;;;;;;27.10;59.49;101206.88;5028473;28;20038;-63
2022/05/19 07:15:34;;;;;;;1.77;1.10;;;;;;;27.17;59.71;101203.06;5007043;28;20030;-63
2022/05/19 07:17:59;;;;;;;1.67;1.08;;;;;;;27.26;59.84;101212.19;5022926;28;20034;-63
2022/05/19 07:20:43;;;;;;;1.70;1.30;;;;;;;27.41;57.97;101213.19;5010549;28;20504;-62
2022/05/19 07:23:11;;;;;;;1.67;1.40;;;;;;;27.55;59.00;101211.84;5021210;28;20033;-63
2022/05/19 07:25:37;;;;;;;1.67;1.13;;;;;;;27.62;58.47;101209.53;5010616;28;20112;-63
2022/05/19 07:28:03;;;;;;;1.50;1.00;;;;;;;27.64;57.71;101211.88;5022729;28;20072;-63
2022/05/19 07:30:28;;;;;;;2.13;1.02;;;;;;;27.61;57.32;101210.78;5020730;28;20049;-63
2022/05/19 07:32:54;;;;;;;1.25;1.00;;;;;;;27.67;56.54;101213.72;5014084;28;20034;-63
2022/05/19 07:35:21;;;;;;;1.35;0.98;;;;;;;27.77;58.48;101220.03;5010476;28;20033;-64
2022/05/19 07:37:46;;;;;;;1.70;0.82;;;;;;;27.87;57.40;101224.38;5018309;28;20035;-63
2022/05/19 07:40:12;;;;;;;1.42;0.77;;;;;;;27.93;56.51;101208.69;5022076;28;20034;-63
2022/05/19 07:42:38;;;;;;;1.58;1.20;;;;;;;28.06;54.95;101210.09;5029072;28;20119;-63
2022/05/19 07:45:05;;;;;;;1.70;1.17;;;;;;;27.95;55.02;101209.78;5028920;28;20061;-63
2022/05/19 07:47:31;;;;;;;1.80;1.02;;;;;;;27.85;54.87;101208.22;5026196;28;20037;-63
2022/05/19 07:49:57;;;;;;;1.50;1.10;;;;;;;27.82;55.72;101200.81;5032572;28;20049;-63
2022/05/19 07:52:24;;;;;;;1.88;1.23;;;;;;;27.99;55.70;101204.09;5021408;28;20099;-63
2022/05/19 07:54:50;;;;;;;2.17;1.10;;;;;;;28.11;56.74;101192.84;5032738;28;20068;-63
2022/05/19 07:57:15;;;;;;;1.92;1.40;;;;;;;28.33;55.11;101195.47;5033371;28;20068;-63
2022/05/19 07:59:40;;;;;;;1.42;0.95;;;;;;;28.43;53.89;101188.69;5033281;28;20128;-63
2022/05/19 08:02:07;;;;;;;2.15;1.05;;;;;;;28.47;54.32;101184.50;5018930;28;20037;-63
2022/05/19 08:04:32;;;;;;;2.78;1.10;;;;;;;28.55;53.83;101184.22;5031134;28;20439;-64
2022/05/19 08:06:58;;;;;;;1.27;1.08;;;;;;;28.73;52.25;101189.72;5013163;28;20324;-63
2022/05/19 08:18:15;;;;;;;1.80;1.45;;;;;;;29.47;51.80;101200.06;4992714;28;20107;-63
2022/05/19 08:21:09;;;;;;;1.20;0.98;;;;;;;29.65;50.39;101192.41;5008357;28;20125;-63
2022/05/19 08:23:40;;;;;;;2.88;1.10;;;;;;;29.81;51.18;101194.03;5029033;28;20080;-62
2022/05/19 08:26:10;;;;;;;1.30;1.13;;;;;;;29.89;50.40;101195.97;5031566;28;20037;-63
2022/05/19 08:28:38;;;;;;;1.33;1.10;;;;;;;30.11;49.71;101187.28;5032823;28;20033;-63
2022/05/19 08:31:14;;;;;;;0.82;0.82;;;;;;;30.29;50.01;101189.19;5010720;28;20017;-63
2022/05/19 08:33:41;;;;;;;1.23;0.90;;;;;;;30.41;48.24;101177.78;5030752;28;20463;-62
2022/05/19 08:36:09;;;;;;;0.80;0.80;;;;;;;30.58;47.76;101178.06;5025408;28;20038;-63
2022/05/19 08:38:35;;;;;;;0.95;0.85;;;;;;;30.50;49.14;101188.81;5032203;28;20029;-63
2022/05/19 08:41:06;;;;;;;1.40;0.85;;;;;;;30.41;47.80;101179.81;5032615;28;20404;-63
2022/05/19 08:43:40;;;;;;;1.52;1.00;;;;;;;30.37;46.97;101179.22;5027503;28;20034;-63
2022/05/19 08:46:17;;;;;;;0.75;0.70;;;;;;;30.18;48.03;101178.56;5019155;28;20044;-63
2022/05/19 08:48:43;;;;;;;0.93;0.70;;;;;;;30.19;46.81;101180.13;5032293;28;20518;-63
2022/05/19 08:51:10;;;;;;;1.00;0.70;;;;;;;30.23;48.03;101184.25;5011430;28;20025;-62
2022/05/19 08:53:39;;;;;;;0.80;0.80;;;;;;;30.29;48.20;101176.06;5031827;28;20500;-63
2022/05/19 08:56:35;;;;;;;2.15;1.17;;;;;;;30.34;46.82;101174.59;5030878;28;20045;-62
2022/05/19 08:59:39;;;;;;;0.73;0.70;;;;;;;30.53;46.00;101175.94;5007557;28;20061;-63
2022/05/19 09:02:09;;;;;;;1.13;0.90;;;;;;;30.77;44.95;101168.28;4967080;28;20173;-62
2022/05/19 09:05:12;;;;;;;1.17;0.70;;;;;;;30.85;45.48;101167.44;5038977;28;20044;-63
2022/05/19 09:08:03;;;;;;;1.38;0.73;;;;;;;30.99;44.72;101168.66;5044603;28;20090;-63
2022/05/19 09:11:02;;;;;;;1.20;0.63;;;;;;;31.24;44.60;101173.59;5022357;28;20076;-63
2022/05/19 09:13:46;;;;;;;0.80;0.70;;;;;;;31.31;43.93;101175.97;5031435;28;20037;-63
2022/05/19 09:16:15;;;;;;;0.95;0.80;;;;;;;31.36;43.70;101169.69;5013601;28;20041;-64
2022/05/19 09:18:46;;;;;;;1.05;0.70;;;;;;;31.39;43.55;101173.56;5010935;28;20037;-63
2022/05/19 09:21:11;;;;;;;;;;;;;;;31.37;43.39;101170.47;5030648;28;20045;-64
2022/05/19 09:23:40;;;;;;;1.08;0.75;;;;;;;31.52;43.06;101166.41;5031009;28;19920;-63
2022/05/19 09:26:21;;;;;;;0.80;0.60;;;;;;;31.76;42.85;101160.63;5031171;28;20033;-63
2022/05/19 09:28:54;;;;;;;1.35;0.90;;;;;;;31.85;42.01;101166.03;5028323;28;20107;-63
2022/05/19 09:31:33;;;;;;;1.00;0.80;;;;;;;31.96;42.31;101161.38;5014674;28;20025;-63
2022/05/19 09:33:58;;;;;;;0.80;0.47;;;;;;;32.15;41.45;101149.91;5011337;28;20037;-64
2022/05/19 09:36:25;;;;;;;1.17;0.80;;;;;;;32.13;41.57;101158.78;5007576;28;20030;-63
2022/05/19 09:39:02;;;;;;;1.70;1.13;;;;;;;31.96;41.65;101143.88;5024660;28;20041;-63
2022/05/19 09:41:39;;;;;;;1.23;0.73;;;;;;;31.95;42.17;101137.56;5009746;28;20052;-63
2022/05/19 09:44:11;;;;;;;0.95;0.70;;;;;;;31.90;41.19;101131.91;5009204;28;20030;-63
2022/05/19 09:46:50;;;;;;;0.88;0.70;;;;;;;31.92;42.51;101137.78;5012556;28;20041;-63
2022/05/19 09:49:44;;;;;;;0.93;0.80;;;;;;;31.91;41.54;101127.88;5029824;28;20488;-63
2022/05/19 09:52:17;;;;;;;0.95;0.65;;;;;;;31.96;42.35;101127.91;5031088;28;20048;-63
2022/05/19 09:54:51;;;;;;;0.82;0.68;;;;;;;32.11;41.32;101127.84;5023082;28;20155;-63
2022/05/19 09:57:26;;;;;;;1.10;0.60;;;;;;;32.27;42.31;101129.25;5019546;28;20506;-63
2022/05/19 09:59:53;;;;;;;1.33;0.77;;;;;;;32.53;43.85;101141.16;5030082;28;20108;-63
2022/05/19 10:02:25;;;;;;;0.65;0.60;;;;;;;32.60;41.34;101123.97;5030706;28;20026;-62
2022/05/19 10:04:58;;;;;;;1.00;0.70;;;;;;;32.74;41.00;101129.41;5011211;28;20038;-63
2022/05/19 10:07:29;;;;;;;0.98;0.50;;;;;;;32.71;39.20;101126.84;5024085;28;20416;-63
2022/05/19 10:09:58;;;;;;;1.27;0.77;;;;;;;32.67;40.81;101120.75;5030390;28;20154;-63
2022/05/19 10:12:29;;;;;;;0.90;0.75;;;;;;;32.89;40.07;101109.69;5029595;28;20468;-63
2022/05/19 10:15:22;;;;;;;1.73;0.60;;;;;;;33.13;39.83;101115.72;5022047;28;20030;-63
2022/05/19 10:18:12;;;;;;;0.65;0.52;;;;;;;33.20;40.29;101106.13;5028283;28;20053;-63
2022/05/19 10:20:48;;;;;;;0.88;0.60;;;;;;;33.25;39.59;101105.38;5030268;28;20091;-63
2022/05/19 10:23:36;;;;;;;1.30;0.88;;;;;;;33.30;40.51;101110.97;5030578;28;20461;-63
2022/05/19 10:26:15;;;;;;;1.23;0.60;;;;;;;33.48;40.06;101104.22;5009093;28;20127;-63
2022/05/19 10:32:05;;;;;;;0.50;0.50;;;;;;;33.53;38.85;101098.66;5012210;28;20453;-63
2022/05/19 10:34:56;;;;;;;1.10;0.82;;;;;;;33.56;37.65;101094.88;5027112;28;20029;-63
2022/05/19 10:38:10;;;;;;;1.15;0.70;;;;;;;33.23;38.45;101096.72;5028941;28;20048;-63
2022/05/19 10:41:12;;;;;;;0.60;0.60;;;;;;;33.16;38.80;101095.16;5001342;28;20385;-63
2022/05/19 10:43:46;;;;;;;0.98;0.80;;;;;;;33.11;38.38;101079.16;5006397;28;20404;-63
2022/05/19 10:46:14;;;;;;;1.80;0.90;;;;;;;33.02;38.97;101081.38;5016029;28;20124;-63
2022/05/19 10:48:56;;;;;;;1.08;0.70;;;;;;;32.89;39.34;101078.25;5022611;28;20044;-63
2022/05/19 10:51:33;;;;;;;0.50;0.50;;;;;;;32.96;39.47;101077.78;5015900;28;20033;-63
2022/05/19 10:54:17;;;;;;;0.73;0.65;;;;;;;33.11;39.32;101079.16;5025352;28;20531;-63
2022/05/19 10:57:01;;;;;;;0.60;0.60;;;;;;;33.23;39.16;101072.34;5023354;28;20034;-63
2022/05/19 10:59:48;;;;;;;1.13;0.65;;;;;;;33.32;40.26;101068.56;5009048;28;20500;-63
2022/05/19 11:02:37;;;;;;;0.90;0.70;;;;;;;33.25;38.70;101060.69;5020696;28;20030;-64
2022/05/19 11:05:16;;;;;;;0.82;0.77;;;;;;;33.22;38.06;101058.88;5015492;28;20034;-63
2022/05/19 11:08:18;;;;;;;1.30;0.95;;;;;;;33.17;38.59;101052.00;5008230;28;20044;-63
2022/05/19 11:11:18;;;;;;;0.63;0.63;;;;;;;33.17;37.30;101052.00;5007323;28;20029;-63
2022/05/19 11:14:08;;;;;;;2.13;0.68;;;;;;;33.27;39.24;101046.97;5007912;28;20033;-61
2022/05/19 11:16:43;;;;;;;0.85;0.60;;;;;;;33.50;38.60;101043.78;5016385;28;20038;-60
2022/05/19 11:19:27;;;;;;;0.65;0.60;;;;;;;33.73;37.89;101041.78;5015943;28;20392;-61
2022/05/19 11:22:02;;;;;;;1.27;0.55;;;;;;;33.97;37.28;101035.72;5014270;28;20038;-59
2022/05/19 11:24:33;;;;;;;1.25;0.80;;;;;;;34.08;36.34;101041.34;5020774;28;20476;-61
2022/05/19 11:27:16;;;;;;;0.90;0.73;;;;;;;34.16;35.35;101033.97;5014124;28;20459;-58
2022/05/19 11:29:49;;;;;;;0.60;0.60;;;;;;;34.14;36.65;101017.69;5009954;28;20034;-58
2022/05/19 11:32:27;;;;;;;0.90;0.70;;;;;;;34.26;36.93;101018.44;5019756;28;20096;-60
2022/05/19 11:35:05;;;;;;;0.85;0.73;;;;;;;34.41;37.28;101018.94;5022276;28;20033;-60
2022/05/19 11:37:42;;;;;;;1.13;0.75;;;;;;;34.50;36.75;101024.28;5024433;28;20041;-60
2022/05/19 11:40:36;;;;;;;0.75;0.73;;;;;;;34.34;36.97;101011.06;5019379;28;20037;-61
2022/05/19 11:43:29;;;;;;;0.65;0.60;;;;;;;34.38;37.14;101015.13;4999253;28;20897;-61
2022/05/19 11:46:02;;;;;;;1.08;0.70;;;;;;;34.46;37.58;101020.94;5012421;28;20041;-59
2022/05/19 11:57:45;;;;;;;1.67;0.80;;;;;;;34.66;38.24;100986.31;5023364;28;20052;-64
2022/05/19 12:00:12;;;;;;;1.77;0.80;;;;;;;34.70;36.52;100995.22;5026913;28;20037;-63
2022/05/19 12:02:49;;;;;;;1.08;0.70;;;;;;;34.74;37.52;100984.53;5025829;28;20053;-62
2022/05/19 12:05:40;;;;;;;0.88;0.77;;;;;;;34.63;36.13;100987.38;5015326;28;20041;-62
2022/05/19 12:08:14;;;;;;;0.85;0.80;;;;;;;34.43;35.67;100971.59;5019824;28;20057;-62
2022/05/19 12:10:47;;;;;;;0.95;0.63;;;;;;;34.42;35.86;100967.25;5013744;28;20037;-62